LFKT weather

Corte Airport
Corte, Corsica, France

Public forecast

Using degrees Celsius for public forecast. Weather courtesy of forecast.io.

Closest aviation weather report (METAR) to Corte Airport

Closest report is Bastia-Poretta Airport, 20.2 nm (37.4 km) NE. Retrieved 2020/06/05 18:30 UTC (19 minutes ago):

LFKB 051830Z AUTO 02004KT CAVOK 21/14 Q1003 NOSIG

Closest aviation forecast (TAF) to Corte Airport

Closest forecast is Bastia-Poretta Airport, 20.2 nm (37.4 km) NE. Retrieved 2020/06/05 15:26 UTC (3 hours ago):

TAF LFKB 051400Z 0515/0615 10008KT 9999 NSC TX26/0612Z TN15/0603Z TEMPO 0515/0518 34015KT BECMG 0518/0520 24006KT CAVOK BECMG 0607/0609 12008KT